Indianapolis, IN

12:32 PM EDT on August 28, 2014 (GMT -0400)
Indianapolis International | Change Station
CLOSE
Current Station
Airport
Location: Indianapolis,
Elevation: 807 ft
Nearby Weather Stations

Elev 807 ft 39.71 °N, 86.30 °W | Updated 38 minutes ago

Mostly Cloudy
Mostly Cloudy
75 °F
Feels Like 75 °F
N
7
Wind Variable Wind from ESE

Today
High -- | Low -- °F
--% Chance of Precip.
Yesterday
High -- | Low -- °F
Precip. -- in
7:09 AM 8:22 PM
Waxing Crescent, 9% visible
Pressure 30.07 in
Visibility 10.0 miles
Clouds Few 10000 ft
Mostly Cloudy 11000 ft
Mostly Cloudy 13000 ft
Dew Point 66 °F
Humidity 73%
Rainfall 0.00 in
Snow Depth Not available.
UV 4 out of 12
Pollen 10.40 out of 12
Ozone Good
Flu Activity Not available.
METAR KIND 281554Z 12006KT 10SM FEW100 BKN110 BKN130 24/19 A3009 RMK AO2 SLP182 T02390189

More Conditions Fewer Conditions

Pressure 30.07 in
Visibility 10.0 miles
Clouds Few 10000 ft
Mostly Cloudy 11000 ft
Mostly Cloudy 13000 ft
Dew Point 66 °F
Humidity 73%
Rainfall 0.00 in
Snow Depth Not available.
UV 4 out of 12
Pollen 10.40 out of 12
Ozone Good
Flu Activity Not available.
METAR KIND 281554Z 12006KT 10SM FEW100 BKN110 BKN130 24/19 A3009 RMK AO2 SLP182 T02390189

More Conditions Fewer Conditions

10-Day Weather Forecast

Almanac

Astronomy

Aug. 28, 2014 Rise Set
Actual Time 7:09 AM EDT 8:22 PM EDT
Civil Twilight 6:41 AM EDT 8:50 PM EDT
Nautical Twilight 6:08 AM EDT 9:23 PM EDT
Astronomical Twilight 5:33 AM EDT 9:58 PM EDT
Moon 10:00 AM EDT 9:46 PM EDT
Length of Visible Light 14h 08m
Length of Day
13h 13m
Tomorrow will be 2m 28s shorter.
Waxing Crescent, 9% of the Moon is Illuminated
Today
Waxing Crescent
Sep 2
First Quarter
Sep 8
Full
Sep 15
Last Quarter
Sep 24
New

Today's Extremes

State Highs State Lows

Community

WunderPhotos

Upload Photos

1,748,010 photos uploaded!

Nearby

Air Quality

  Air Quality AQ Index Pollutant
Yesterday Good
PM10
Yesterday Good
OZONE
Current Good
OZONE
Thursday Moderate
PM2.5
Thursday Good
OZONE
Friday Moderate
PM2.5
Friday Moderate
OZONE

Snow Depth

Station Depth Elevation
No new snow has been reported.

Earthquake Activity

City Distance Mag. Time & Date
No recent earthquake activity has been reported nearby.
Minimum magnitude displayed is 2.5.

Coastal Water Temperatures

Place Temperature
No Stations Reporting

Nearby Weather Stations